Time;durP1;ratioP1;P1;durP2;ratioP2;P2;SDS_P1;SDS_P2;PMS_P1;PMS_P2;Temp;Humidity;BMP_temperature;BMP_pressure;BME280_temperature;BME280_humidity;BME280_pressure;Samples;Min_cycle;Max_cycle;Signal;HPM_P1;HPM_P2
2023/05/23 00:08:36;;;;;;;35.13;22.73;;;;;;;30.09;76.18;100900.78;5066260;27;43749;-42
2023/05/23 00:11:08;;;;;;;37.92;22.85;;;;;;;30.03;75.86;100904.31;5053854;28;70064;-41
2023/05/23 00:13:39;;;;;;;32.97;21.35;;;;;;;30.00;76.20;100904.75;5068182;27;66436;-40
2023/05/23 00:16:10;;;;;;;37.78;22.52;;;;;;;30.00;75.73;100902.88;5056176;28;70303;-45
2023/05/23 00:18:41;;;;;;;28.75;20.98;;;;;;;30.04;75.47;100909.53;5053703;28;65309;-41
2023/05/23 00:21:13;;;;;;;28.70;20.70;;;;;;;29.96;75.41;100895.44;5055290;28;70870;-40
2023/05/23 00:23:44;;;;;;;25.80;19.92;;;;;;;30.06;75.52;100909.31;5054673;28;67233;-40
2023/05/23 00:26:15;;;;;;;30.15;20.33;;;;;;;29.45;75.67;100825.88;5052656;28;70276;-40
2023/05/23 00:28:47;;;;;;;29.95;19.00;;;;;;;30.07;75.86;100908.28;5050667;28;65512;-42
2023/05/23 00:31:18;;;;;;;27.98;19.65;;;;;;;30.11;75.60;100914.09;5068918;28;70571;-39
2023/05/23 00:33:49;;;;;;;29.55;18.83;;;;;;;30.13;75.87;100912.81;5049457;28;66279;-38
2023/05/23 00:36:23;;;;;;;26.15;17.88;;;;;;;29.72;76.53;100851.81;5052873;28;69979;-40
2023/05/23 00:38:54;;;;;;;20.15;16.08;;;;;;;30.15;74.47;100916.16;5051908;28;66138;-42
2023/05/23 00:41:25;;;;;;;;;;;;;;;29.94;75.38;100924.56;5053627;28;69323;-40
2023/05/23 00:43:59;;;;;;;14.50;12.95;;;;;;;30.18;72.90;100931.97;5067493;28;65939;-40
2023/05/23 00:58:10;;;;;;;13.40;12.13;;;;;;;30.69;70.79;100941.91;5138989;27;43869;-41
2023/05/23 01:00:43;;;;;;;11.82;10.77;;;;;;;30.47;70.79;100913.53;5138102;27;70218;-41
2023/05/23 01:03:16;;;;;;;12.68;11.35;;;;;;;30.59;70.65;100938.88;5119934;27;65575;-41
2023/05/23 01:05:48;;;;;;;11.70;10.68;;;;;;;30.58;70.97;100952.63;5137746;27;69898;-40
2023/05/23 01:08:20;;;;;;;11.93;10.88;;;;;;;29.81;70.55;100858.66;5139348;27;66435;-41
2023/05/23 01:10:52;;;;;;;12.13;11.02;;;;;;;30.58;70.66;100941.78;5137013;27;69973;-41
2023/05/23 01:13:33;;;;;;;12.30;11.10;;;;;;;30.61;70.40;100942.19;5122619;27;66327;-41
2023/05/23 01:16:17;;;;;;;11.52;10.50;;;;;;;30.33;70.20;100895.69;5113864;27;70295;-40
2023/05/23 01:19:04;;;;;;;12.80;9.98;;;;;;;29.63;70.35;100777.41;5117042;27;66460;-41
2023/05/23 01:21:37;;;;;;;11.38;10.35;;;;;;;29.93;70.17;100837.19;5102650;27;69851;-39
2023/05/23 01:24:07;;;;;;;;;;;;;;;30.39;71.44;100946.25;5135581;27;66547;-41
2023/05/23 01:26:51;;;;;;;10.52;9.63;;;;;;;30.66;70.34;100961.31;5133059;27;69925;-40
2023/05/23 01:29:26;;;;;;;10.77;9.73;;;;;;;29.73;70.09;100783.19;5136653;27;66024;-41
2023/05/23 01:31:59;;;;;;;10.73;9.93;;;;;;;30.71;69.50;100945.25;5126995;27;70588;-40
2023/05/23 01:34:31;;;;;;;10.90;10.00;;;;;;;30.70;69.57;100943.59;5102396;27;66569;-40
2023/05/23 01:37:09;;;;;;;10.95;9.95;;;;;;;30.65;69.53;100938.00;5100042;27;69881;-40
2023/05/23 01:39:40;;;;;;;10.02;9.25;;;;;;;30.80;69.80;100955.84;5136415;27;66444;-41
2023/05/23 01:42:11;;;;;;;11.60;10.60;;;;;;;30.81;69.43;100955.63;5118375;27;69280;-40
2023/05/23 01:44:44;;;;;;;10.32;9.43;;;;;;;30.54;69.57;100911.63;5136417;27;64589;-40
2023/05/23 01:47:16;;;;;;;11.02;10.20;;;;;;;30.63;69.30;100923.03;5122083;27;69956;-40
2023/05/23 01:49:47;;;;;;;10.98;10.02;;;;;;;30.86;69.02;100949.56;5140847;27;66649;-40
2023/05/23 01:52:20;;;;;;;10.40;9.43;;;;;;;30.91;69.26;100963.28;5133701;27;69931;-41
2023/05/23 01:54:51;;;;;;;10.48;9.57;;;;;;;30.81;69.35;100941.25;5135927;27;65377;-40
2023/05/23 01:57:41;;;;;;;10.32;9.52;;;;;;;30.97;68.92;100967.81;5123400;27;69121;-41
2023/05/23 02:00:14;;;;;;;9.83;9.13;;;;;;;30.98;69.08;100958.66;5123334;27;65425;-40
2023/05/23 02:02:48;;;;;;;10.75;9.82;;;;;;;30.93;68.76;100959.31;5116386;27;70530;-41
2023/05/23 02:05:19;;;;;;;10.38;9.57;;;;;;;31.04;68.83;100957.78;5117233;27;65297;-41
2023/05/23 02:07:50;;;;;;;9.70;8.95;;;;;;;30.90;68.63;100935.38;5120602;27;71207;-41
2023/05/23 02:10:23;;;;;;;10.82;9.88;;;;;;;30.97;68.91;100946.16;5117905;27;65729;-41
2023/05/23 02:13:13;;;;;;;10.43;9.38;;;;;;;31.02;68.77;100943.63;5116935;27;70267;-41
2023/05/23 02:15:44;;;;;;;12.73;9.23;;;;;;;31.12;68.36;100957.50;5115823;27;66644;-41
2023/05/23 02:18:17;;;;;;;10.70;9.80;;;;;;;30.91;68.36;100917.22;5116350;27;69996;-41
2023/05/23 02:20:51;;;;;;;9.85;8.93;;;;;;;31.08;68.30;100937.31;5106453;27;66707;-41
2023/05/23 02:23:22;;;;;;;9.85;9.25;;;;;;;31.16;68.14;100953.28;5117114;27;70218;-42
2023/05/23 02:25:53;;;;;;;9.85;9.15;;;;;;;31.24;67.94;100945.97;5120794;27;66685;-41
2023/05/23 02:28:24;;;;;;;10.93;9.93;;;;;;;31.20;68.46;100950.13;5116075;27;70053;-41
2023/05/23 02:30:55;;;;;;;10.18;9.27;;;;;;;31.09;67.95;100921.88;5111770;27;65511;-40
2023/05/23 02:33:26;;;;;;;10.00;9.30;;;;;;;31.16;67.90;100931.63;5120882;27;70049;-40
2023/05/23 02:35:57;;;;;;;9.52;8.90;;;;;;;31.32;67.99;100959.22;5112651;27;66339;-40
2023/05/23 02:38:29;;;;;;;9.57;8.68;;;;;;;31.20;67.59;100934.72;5107051;27;70593;-41
2023/05/23 02:41:00;;;;;;;9.48;8.63;;;;;;;31.19;67.52;100915.97;5117422;27;66174;-40
2023/05/23 02:43:31;;;;;;;9.70;8.93;;;;;;;31.04;67.62;100903.59;5119854;27;68836;-40
2023/05/23 02:46:23;;;;;;;8.80;8.10;;;;;;;31.46;67.93;100962.69;5112770;27;66097;-40
2023/05/23 02:48:54;;;;;;;8.90;8.18;;;;;;;31.25;67.59;100926.75;5108896;27;70036;-40
2023/05/23 02:51:25;;;;;;;10.82;8.15;;;;;;;31.40;67.25;100953.56;5119871;27;65231;-41
2023/05/23 02:54:00;;;;;;;8.38;7.57;;;;;;;31.55;67.30;100970.31;5098491;27;70405;-41
2023/05/23 02:56:34;;;;;;;8.63;7.88;;;;;;;31.58;67.31;100964.44;5114920;27;66488;-40
2023/05/23 02:59:06;;;;;;;8.45;7.95;;;;;;;31.54;67.20;100954.28;5112020;27;70742;-41
2023/05/23 03:01:37;;;;;;;8.32;7.65;;;;;;;31.61;67.00;100966.69;5103047;27;66701;-41
2023/05/23 03:04:09;;;;;;;8.32;7.80;;;;;;;31.47;66.66;100935.34;5106815;27;69385;-41
2023/05/23 03:06:43;;;;;;;8.68;7.88;;;;;;;31.68;66.66;100965.78;5113059;27;66898;-40
2023/05/23 03:09:17;;;;;;;8.18;7.45;;;;;;;31.69;66.97;100953.91;5121369;27;69823;-41
2023/05/23 03:11:51;;;;;;;7.72;7.22;;;;;;;31.72;66.44;100958.88;5115295;27;66716;-40
2023/05/23 03:14:22;;;;;;;7.78;7.00;;;;;;;31.75;66.81;100967.38;5109786;27;70380;-41
2023/05/23 03:16:53;;;;;;;7.65;7.05;;;;;;;31.61;66.53;100942.28;5117136;27;66333;-41
2023/05/23 03:19:25;;;;;;;7.70;7.10;;;;;;;31.78;66.54;100963.41;5108365;27;69457;-41
2023/05/23 03:21:56;;;;;;;7.60;7.00;;;;;;;31.55;66.65;100907.13;5112901;27;65810;-41
2023/05/23 03:24:28;;;;;;;7.38;6.85;;;;;;;31.85;66.19;100955.22;5110562;27;69599;-42
2023/05/23 03:27:00;;;;;;;8.23;7.13;;;;;;;31.85;66.36;100947.91;5111163;27;65571;-39
2023/05/23 03:29:32;;;;;;;6.97;6.50;;;;;;;31.74;65.88;100935.09;5113230;27;68814;-41
2023/05/23 03:32:03;;;;;;;9.15;6.32;;;;;;;31.90;65.73;100952.63;5121923;27;66175;-41
2023/05/23 03:34:35;;;;;;;;;;;;;;;31.63;66.05;100947.50;5116560;27;69963;-40
2023/05/23 03:37:13;;;;;;;7.55;6.93;;;;;;;31.87;65.49;100951.19;5117282;27;65706;-41
2023/05/23 03:39:44;;;;;;;;;;;;;;;31.64;65.79;100946.44;5120405;27;69588;-42
2023/05/23 03:42:17;;;;;;;7.32;6.82;;;;;;;31.95;65.31;100959.06;5109626;27;66942;-40
2023/05/23 03:44:48;;;;;;;6.82;6.28;;;;;;;31.77;65.19;100902.91;5117505;27;70340;-40
2023/05/23 03:47:20;;;;;;;6.30;5.90;;;;;;;31.99;65.04;100937.75;5111320;27;66112;-41
2023/05/23 03:49:52;;;;;;;6.03;5.53;;;;;;;31.97;65.07;100929.00;5111647;27;70510;-41
2023/05/23 03:52:44;;;;;;;6.70;6.30;;;;;;;31.86;65.06;100910.75;5111631;27;65083;-41
2023/05/23 03:55:21;;;;;;;6.25;5.60;;;;;;;31.92;64.77;100909.88;5103755;27;71324;-42
2023/05/23 03:57:55;;;;;;;6.00;5.60;;;;;;;32.05;64.98;100931.41;5113288;27;65432;-43
2023/05/23 04:00:29;;;;;;;9.45;5.85;;;;;;;31.69;64.73;100859.00;5105054;27;70898;-47
2023/05/23 04:03:03;;;;;;;5.70;5.30;;;;;;;32.00;64.47;100902.25;5112243;27;66454;-40
2023/05/23 04:05:35;;;;;;;5.25;4.95;;;;;;;32.10;64.72;100914.47;5112485;27;69824;-43
2023/05/23 04:08:07;;;;;;;5.25;4.95;;;;;;;32.11;64.68;100913.41;5113163;27;67194;-40
2023/05/23 04:10:38;;;;;;;;;;;;;;;31.82;64.80;100896.81;5115043;27;69444;-42
2023/05/23 04:13:08;;;;;;;6.07;5.63;;;;;;;32.12;64.87;100904.19;5097982;27;66186;-42
2023/05/23 04:15:43;;;;;;;5.72;5.32;;;;;;;32.05;64.43;100888.81;5093856;27;69676;-42
2023/05/23 04:18:27;;;;;;;5.82;5.32;;;;;;;32.10;64.26;100890.03;5097041;27;65152;-41
2023/05/23 04:21:00;;;;;;;5.40;5.00;;;;;;;32.03;64.09;100890.09;5105145;27;70511;-41
2023/05/23 04:23:33;;;;;;;5.60;5.10;;;;;;;32.19;63.88;100885.94;5102984;27;64478;-42
2023/05/23 04:26:04;;;;;;;5.60;5.10;;;;;;;31.78;64.00;100817.75;5117785;27;69424;-41
2023/05/23 04:28:42;;;;;;;5.15;4.82;;;;;;;32.22;63.66;100882.78;5113834;27;66033;-40
2023/05/23 04:31:14;;;;;;;5.50;5.10;;;;;;;32.23;63.66;100879.00;5095348;27;70056;-41
2023/05/23 04:33:45;;;;;;;5.22;4.82;;;;;;;32.10;63.88;100847.44;5109796;27;65874;-41
2023/05/23 04:36:18;;;;;;;4.60;4.30;;;;;;;32.27;63.73;100867.44;5116465;27;69770;-42
2023/05/23 04:38:53;;;;;;;4.90;4.50;;;;;;;32.34;63.44;100864.63;5108411;27;65696;-44
2023/05/23 04:41:24;;;;;;;8.15;4.68;;;;;;;32.17;63.55;100836.50;5119373;27;70059;-41
2023/05/23 04:44:20;;;;;;;5.55;5.05;;;;;;;32.34;63.46;100848.34;5106377;27;65950;-42
2023/05/23 04:47:07;;;;;;;5.35;5.05;;;;;;;32.40;63.37;100858.31;5098236;27;69750;-41
2023/05/23 04:50:05;;;;;;;4.78;4.35;;;;;;;32.44;63.17;100850.50;5105576;27;65424;-41
2023/05/23 04:52:37;;;;;;;5.20;4.80;;;;;;;32.47;63.13;100842.75;5113136;27;70310;-40
2023/05/23 04:55:08;;;;;;;4.70;4.33;;;;;;;32.51;63.13;100840.41;5115444;27;66061;-42
2023/05/23 04:57:40;;;;;;;5.30;4.38;;;;;;;32.39;62.96;100813.19;5117941;27;69861;-42
2023/05/23 05:00:14;;;;;;;4.72;4.43;;;;;;;32.44;63.04;100807.91;5113629;27;65355;-42
2023/05/23 05:02:46;;;;;;;4.82;4.43;;;;;;;32.55;62.98;100821.78;5074157;27;69840;-43
2023/05/23 05:05:17;;;;;;;5.43;3.95;;;;;;;32.55;62.73;100814.44;5106303;27;65765;-41
2023/05/23 05:07:53;;;;;;;4.97;4.57;;;;;;;32.31;62.69;100772.81;5113626;27;70455;-41
2023/05/23 05:10:25;;;;;;;4.70;4.40;;;;;;;32.57;62.67;100800.63;5102523;27;66106;-42
2023/05/23 05:12:58;;;;;;;5.43;4.93;;;;;;;32.60;62.47;100819.19;5103467;27;69149;-42
2023/05/23 05:15:57;;;;;;;4.53;4.22;;;;;;;32.67;62.47;100804.41;5111580;27;66106;-42
2023/05/23 05:18:29;;;;;;;4.97;4.45;;;;;;;32.58;62.62;100786.00;5113446;27;70123;-42
2023/05/23 05:21:00;;;;;;;6.05;4.25;;;;;;;32.66;62.44;100797.34;5115468;27;65516;-41
2023/05/23 05:23:32;;;;;;;4.75;4.45;;;;;;;32.71;62.44;100793.94;5119034;27;69181;-42
2023/05/23 05:26:05;;;;;;;4.68;4.38;;;;;;;32.75;62.24;100789.66;5107579;27;66586;-42
2023/05/23 05:28:37;;;;;;;4.38;4.07;;;;;;;32.78;62.08;100789.19;5113612;27;70294;-42
2023/05/23 05:31:08;;;;;;;4.03;3.80;;;;;;;32.66;62.25;100761.22;5108744;27;66062;-41
2023/05/23 05:33:44;;;;;;;4.60;4.13;;;;;;;32.63;62.00;100739.97;5093680;27;70326;-41
2023/05/23 05:36:19;;;;;;;4.43;4.13;;;;;;;32.83;61.98;100764.88;5106013;27;65467;-41
2023/05/23 05:38:52;;;;;;;4.32;4.10;;;;;;;32.86;62.07;100758.97;5101735;27;70767;-41
2023/05/23 05:41:23;;;;;;;4.60;4.20;;;;;;;32.88;61.83;100745.97;5118675;27;66119;-41
2023/05/23 05:43:54;;;;;;;;;;;;;;;32.61;62.19;100740.19;5095892;27;70059;-42
2023/05/23 05:46:26;;;;;;;4.25;3.95;;;;;;;32.82;62.04;100722.47;5123185;27;67134;-43
2023/05/23 05:48:57;;;;;;;4.47;4.07;;;;;;;32.94;61.71;100736.88;5117814;27;70068;-43
2023/05/23 05:51:28;;;;;;;4.27;4.07;;;;;;;32.83;61.64;100699.66;5109455;27;66303;-46
2023/05/23 05:54:01;;;;;;;4.45;4.15;;;;;;;33.02;61.79;100732.19;5114765;27;70550;-42
2023/05/23 05:56:31;;;;;;;;;;;;;;;32.76;61.81;100731.56;5119599;27;66497;-44
2023/05/23 05:59:03;;;;;;;4.20;3.90;;;;;;;33.07;61.45;100732.25;5116159;27;69829;-40
2023/05/23 06:01:34;;;;;;;4.00;3.80;;;;;;;33.03;61.46;100720.22;5113491;27;66640;-41
2023/05/23 06:04:06;;;;;;;4.32;3.97;;;;;;;33.15;61.19;100732.75;5111089;27;70043;-42
2023/05/23 06:06:38;;;;;;;4.57;4.28;;;;;;;32.73;60.93;100647.81;5110975;27;66360;-41
2023/05/23 06:09:10;;;;;;;4.00;3.70;;;;;;;33.10;61.59;100710.06;5112297;27;69681;-41
2023/05/23 06:11:41;;;;;;;4.00;3.75;;;;;;;32.86;60.68;100634.00;5113372;27;66462;-40
2023/05/23 06:14:12;;;;;;;3.95;3.65;;;;;;;33.29;60.80;100692.53;5114392;27;69909;-40
2023/05/23 06:16:46;;;;;;;4.38;3.88;;;;;;;33.34;60.99;100694.50;5104755;27;65834;-40
2023/05/23 06:19:18;;;;;;;4.07;3.28;;;;;;;33.27;60.58;100678.34;5109693;27;70484;-40
2023/05/23 06:21:49;;;;;;;4.70;4.30;;;;;;;33.42;60.77;100690.59;5110017;27;66558;-41
2023/05/23 06:24:22;;;;;;;4.40;3.90;;;;;;;33.25;60.34;100658.72;5114445;27;70255;-40
2023/05/23 06:26:53;;;;;;;4.03;3.83;;;;;;;33.49;60.68;100686.66;5104546;27;66459;-40
2023/05/23 06:29:25;;;;;;;4.03;3.63;;;;;;;33.56;60.54;100681.09;5117766;27;69942;-41
2023/05/23 06:31:57;;;;;;;3.70;3.40;;;;;;;33.38;60.45;100658.44;5103561;27;65695;-41
2023/05/23 06:34:28;;;;;;;4.40;4.00;;;;;;;33.61;60.07;100677.66;5108966;27;69246;-41
2023/05/23 06:36:59;;;;;;;4.07;3.78;;;;;;;33.64;60.22;100672.53;5109074;27;64784;-45
2023/05/23 06:39:31;;;;;;;4.07;3.78;;;;;;;33.57;60.17;100667.25;5109862;27;70026;-42
2023/05/23 06:42:03;;;;;;;3.63;3.43;;;;;;;33.58;59.84;100659.94;5112015;27;65046;-41
2023/05/23 06:44:50;;;;;;;5.88;4.13;;;;;;;33.72;59.74;100672.16;5108632;27;69827;-41
2023/05/23 06:47:22;;;;;;;4.00;3.70;;;;;;;33.76;59.37;100670.56;5107797;27;66279;-41
2023/05/23 06:49:54;;;;;;;3.95;3.65;;;;;;;33.65;59.45;100649.69;5114545;27;69244;-41
2023/05/23 06:52:26;;;;;;;3.58;3.35;;;;;;;33.82;59.15;100668.75;5111528;27;65895;-41
2023/05/23 06:54:58;;;;;;;3.83;3.50;;;;;;;33.64;59.43;100629.03;5111757;27;69162;-40
2023/05/23 06:57:29;;;;;;;4.10;3.80;;;;;;;33.92;59.41;100662.69;5092621;27;66546;-42
2023/05/23 07:00:01;;;;;;;4.47;4.18;;;;;;;33.85;59.30;100648.41;5107706;27;70097;-41
2023/05/23 07:02:39;;;;;;;4.60;4.20;;;;;;;33.89;59.51;100635.97;5110793;27;65457;-41
2023/05/23 07:05:12;;;;;;;4.25;3.95;;;;;;;33.97;59.07;100638.28;5109102;27;70414;-45
2023/05/23 07:07:48;;;;;;;3.97;3.65;;;;;;;34.08;59.20;100640.13;5098772;27;64993;-41
2023/05/23 07:10:20;;;;;;;4.40;4.07;;;;;;;34.02;58.74;100627.50;5096408;27;69047;-41
2023/05/23 07:12:53;;;;;;;4.22;3.92;;;;;;;33.91;58.74;100593.03;5109730;27;66302;-42
2023/05/23 07:15:27;;;;;;;5.35;4.28;;;;;;;34.08;58.62;100621.06;5104178;27;70750;-42
2023/05/23 07:18:10;;;;;;;6.00;3.75;;;;;;;34.10;58.52;100620.81;5089400;27;65141;-42
2023/05/23 07:20:41;;;;;;;3.80;3.58;;;;;;;34.24;58.81;100642.03;5091951;27;69006;-42
2023/05/23 07:23:17;;;;;;;4.30;3.92;;;;;;;34.30;58.69;100631.19;5110430;27;64841;-42
2023/05/23 07:25:49;;;;;;;4.03;3.72;;;;;;;34.20;58.31;100610.91;5109916;27;70014;-42
2023/05/23 07:28:53;;;;;;;4.15;3.80;;;;;;;34.25;58.39;100619.16;5102300;27;66007;-41
2023/05/23 07:31:25;;;;;;;4.38;3.92;;;;;;;34.36;58.55;100624.75;5108967;27;69879;-40
2023/05/23 07:33:59;;;;;;;4.30;3.88;;;;;;;34.21;57.89;100596.25;5086163;27;64382;-41
2023/05/23 07:36:41;;;;;;;4.57;4.20;;;;;;;34.35;57.93;100617.66;5114609;27;70623;-42
2023/05/23 07:39:20;;;;;;;5.90;4.00;;;;;;;34.34;58.24;100616.81;5103639;27;65459;-41
2023/05/23 07:41:54;;;;;;;5.00;4.18;;;;;;;34.43;57.89;100633.56;5089723;27;69625;-40
2023/05/23 07:44:25;;;;;;;4.45;4.15;;;;;;;34.31;57.21;100600.19;5107957;27;66487;-41
2023/05/23 07:46:57;;;;;;;9.25;3.85;;;;;;;34.24;57.89;100579.41;5113699;27;70223;-40
2023/05/23 07:49:28;;;;;;;4.82;4.45;;;;;;;34.48;57.74;100618.13;5102993;27;65331;-41
2023/05/23 07:52:00;;;;;;;4.30;4.00;;;;;;;34.50;57.05;100615.16;5113105;27;69684;-40
2023/05/23 07:54:34;;;;;;;5.38;4.55;;;;;;;34.54;57.25;100613.56;5102359;27;66203;-40
2023/05/23 07:57:07;;;;;;;4.28;3.88;;;;;;;34.54;56.83;100605.38;5107373;27;70030;-42
2023/05/23 07:59:40;;;;;;;4.72;4.22;;;;;;;34.52;57.30;100595.81;5121292;27;66235;-41
2023/05/23 08:02:12;;;;;;;4.78;4.40;;;;;;;34.41;56.90;100573.09;5104090;27;70278;-41
2023/05/23 08:04:58;;;;;;;4.93;3.95;;;;;;;34.58;56.76;100589.41;5100282;27;65853;-40
2023/05/23 08:07:32;;;;;;;4.40;4.10;;;;;;;34.57;57.41;100577.66;5099670;27;70258;-41
2023/05/23 08:10:16;;;;;;;4.28;3.97;;;;;;;34.53;57.12;100573.78;5107082;27;66035;-41
2023/05/23 08:12:48;;;;;;;7.88;4.65;;;;;;;34.50;56.87;100555.22;5115158;27;70809;-41
2023/05/23 08:15:23;;;;;;;4.70;4.30;;;;;;;34.56;57.09;100553.44;5113200;27;65996;-40
2023/05/23 08:18:04;;;;;;;4.45;4.05;;;;;;;34.54;56.83;100556.34;5104169;27;68971;-40
2023/05/23 08:20:35;;;;;;;4.65;4.20;;;;;;;34.57;57.16;100547.72;5110847;27;65383;-40
2023/05/23 08:23:07;;;;;;;5.07;4.03;;;;;;;34.55;57.00;100547.13;5115984;27;69628;-41
2023/05/23 08:25:39;;;;;;;4.63;4.18;;;;;;;34.42;56.70;100521.09;5106954;27;65938;-41
2023/05/23 08:28:10;;;;;;;4.40;4.10;;;;;;;34.63;56.68;100546.72;5118122;27;69686;-40
2023/05/23 08:30:50;;;;;;;4.57;4.18;;;;;;;34.57;56.96;100528.66;5110289;27;66979;-41
2023/05/23 08:33:22;;;;;;;4.25;3.95;;;;;;;34.59;56.57;100525.69;5115841;27;70246;-40
2023/05/23 08:36:03;;;;;;;4.57;4.18;;;;;;;34.65;56.94;100541.00;5108907;27;65558;-39
2023/05/23 08:38:40;;;;;;;4.45;4.13;;;;;;;34.12;57.09;100449.91;5103772;27;70388;-41
2023/05/23 08:41:22;;;;;;;4.95;4.35;;;;;;;34.65;56.66;100555.44;5106391;27;66833;-41
2023/05/23 08:44:00;;;;;;;4.25;3.95;;;;;;;34.66;56.95;100548.94;5096963;27;70413;-39
2023/05/23 08:46:45;;;;;;;4.80;4.20;;;;;;;34.66;56.74;100546.22;5096315;27;66311;-42
2023/05/23 08:49:31;;;;;;;4.90;4.35;;;;;;;34.69;57.08;100542.97;5108181;27;69607;-40
2023/05/23 08:52:04;;;;;;;5.60;5.05;;;;;;;34.72;56.71;100544.38;5112008;27;65849;-40
2023/05/23 08:54:36;;;;;;;5.32;4.22;;;;;;;34.51;56.53;100502.41;5103713;27;70110;-40
2023/05/23 08:57:09;;;;;;;5.10;4.47;;;;;;;34.63;56.58;100516.75;5101688;27;65918;-41
2023/05/23 08:59:46;;;;;;;4.75;4.28;;;;;;;34.69;56.53;100529.34;5117014;27;70410;-41
2023/05/23 09:02:18;;;;;;;4.93;4.40;;;;;;;34.63;56.95;100521.34;5100554;27;66350;-40
2023/05/23 09:04:50;;;;;;;4.90;4.25;;;;;;;34.68;56.95;100518.69;5124563;27;69939;-40
2023/05/23 09:07:27;;;;;;;4.88;4.57;;;;;;;34.74;56.53;100522.31;5101283;27;66265;-40
2023/05/23 09:09:59;;;;;;;4.82;4.35;;;;;;;34.64;56.89;100507.50;5107379;27;68979;-40
2023/05/23 09:12:32;;;;;;;5.18;4.75;;;;;;;34.75;57.06;100529.41;5106153;27;66844;-40
2023/05/23 09:15:08;;;;;;;4.95;4.43;;;;;;;34.62;56.27;100514.28;5102770;27;70572;-40
2023/05/23 09:17:40;;;;;;;5.05;4.70;;;;;;;34.68;57.11;100524.97;5118534;27;66397;-40
2023/05/23 09:20:13;;;;;;;;;;;;;;;34.46;57.11;100529.56;5111956;27;70319;-40
2023/05/23 09:22:50;;;;;;;6.93;5.22;;;;;;;34.73;56.67;100537.00;5117804;27;67761;-41
2023/05/23 09:25:22;;;;;;;5.40;5.00;;;;;;;34.75;57.06;100534.88;5106226;27;70810;-41
2023/05/23 09:27:58;;;;;;;6.75;5.50;;;;;;;34.77;56.69;100532.69;5122260;27;66324;-40
2023/05/23 09:30:34;;;;;;;4.70;4.40;;;;;;;33.97;57.12;100393.38;5109121;27;70521;-45
2023/05/23 09:33:05;;;;;;;4.93;4.63;;;;;;;34.58;56.88;100492.19;5110581;27;65240;-40
2023/05/23 09:35:45;;;;;;;5.63;5.00;;;;;;;34.74;56.78;100527.75;5094183;27;69320;-40
2023/05/23 09:38:16;;;;;;;5.63;5.20;;;;;;;34.55;56.66;100481.75;5107567;27;66507;-40
2023/05/23 09:40:47;;;;;;;5.57;5.07;;;;;;;34.67;56.83;100509.72;5090815;27;69798;-39
2023/05/23 09:43:21;;;;;;;5.07;4.72;;;;;;;34.74;56.83;100536.75;5104784;27;66712;-41
2023/05/23 09:45:54;;;;;;;7.43;4.60;;;;;;;34.65;57.18;100525.47;5107109;27;70190;-41
2023/05/23 09:48:32;;;;;;;6.05;5.43;;;;;;;34.32;57.07;100476.56;5111423;27;66343;-40
2023/05/23 09:51:05;;;;;;;5.85;5.47;;;;;;;34.67;56.83;100545.13;5111297;27;69892;-40
2023/05/23 09:53:36;;;;;;;5.82;4.60;;;;;;;34.66;56.77;100548.13;5103150;27;67008;-41
2023/05/23 09:56:10;;;;;;;5.00;4.70;;;;;;;33.98;56.77;100449.44;5111486;27;70208;-40
2023/05/23 09:58:44;;;;;;;6.35;5.00;;;;;;;34.59;57.08;100531.94;5103814;27;66462;-40
2023/05/23 10:01:16;;;;;;;6.18;5.03;;;;;;;34.73;57.08;100547.91;5107838;27;70592;-41
2023/05/23 10:03:56;;;;;;;6.15;5.68;;;;;;;34.74;56.50;100549.53;5108443;27;66552;-40
2023/05/23 10:06:39;;;;;;;5.72;5.28;;;;;;;34.03;57.07;100447.59;5112044;27;69728;-42
2023/05/23 10:09:17;;;;;;;5.68;5.28;;;;;;;33.98;56.77;100438.56;5118789;27;66461;-40
2023/05/23 10:12:26;;;;;;;6.20;5.70;;;;;;;34.49;57.20;100548.13;5104745;27;70659;-40
2023/05/23 10:15:02;;;;;;;6.15;5.65;;;;;;;34.71;57.27;100583.56;5101162;27;66688;-43
2023/05/23 10:17:51;;;;;;;5.82;5.45;;;;;;;33.34;56.91;100369.09;5108476;27;69380;-41
2023/05/23 10:20:28;;;;;;;8.57;5.40;;;;;;;34.60;56.91;100588.09;5111832;27;66771;-40
2023/05/23 10:23:04;;;;;;;8.88;6.13;;;;;;;34.68;57.18;100595.78;5112053;27;70352;-41
2023/05/23 10:25:35;;;;;;;6.50;6.03;;;;;;;34.52;57.29;100569.44;5102619;27;66640;-41
2023/05/23 10:28:07;;;;;;;5.93;5.53;;;;;;;34.65;57.17;100593.56;5115592;27;68988;-40
2023/05/23 10:30:38;;;;;;;6.15;5.55;;;;;;;34.60;57.84;100609.03;5106091;27;65414;-41
2023/05/23 10:33:12;;;;;;;6.82;6.32;;;;;;;34.67;57.18;100626.03;5106327;27;70646;-41
2023/05/23 10:36:09;;;;;;;6.28;5.78;;;;;;;34.58;57.63;100639.25;5108315;27;65377;-42
2023/05/23 10:38:53;;;;;;;6.72;6.15;;;;;;;34.47;57.35;100621.91;5114455;27;70268;-43
2023/05/23 10:41:56;;;;;;;6.28;5.85;;;;;;;34.61;57.60;100649.66;5109237;27;65846;-41
2023/05/23 10:44:31;;;;;;;6.45;6.05;;;;;;;34.46;57.93;100630.34;5085508;27;69543;-41
2023/05/23 10:47:03;;;;;;;6.75;6.30;;;;;;;33.81;57.91;100537.34;5109856;27;66593;-44
2023/05/23 10:49:45;;;;;;;6.70;6.30;;;;;;;33.94;57.92;100546.25;5111507;27;70582;-41
2023/05/23 10:52:17;;;;;;;6.57;5.93;;;;;;;34.55;58.43;100657.97;5110926;27;66027;-41
2023/05/23 10:54:53;;;;;;;9.05;6.30;;;;;;;34.52;58.32;100656.59;5103454;27;69709;-40
2023/05/23 10:57:28;;;;;;;8.75;6.32;;;;;;;34.56;58.42;100676.00;5114661;27;65815;-40
2023/05/23 10:59:59;;;;;;;6.90;6.40;;;;;;;34.48;58.70;100677.22;5095561;27;69658;-41
2023/05/23 11:02:30;;;;;;;6.63;6.07;;;;;;;34.51;58.88;100687.59;5109377;27;66350;-40
2023/05/23 11:05:23;;;;;;;6.95;6.45;;;;;;;34.39;59.03;100692.34;5110383;27;69558;-41
2023/05/23 11:08:07;;;;;;;7.55;6.85;;;;;;;34.38;58.64;100691.50;5104213;27;65169;-42
2023/05/23 11:11:01;;;;;;;7.70;7.10;;;;;;;34.38;58.67;100709.72;5109172;27;69742;-42
2023/05/23 11:13:54;;;;;;;7.88;7.15;;;;;;;34.36;59.28;100711.91;5107836;27;66345;-40
2023/05/23 11:16:30;;;;;;;7.05;6.45;;;;;;;34.42;59.04;100721.78;5115939;27;70227;-41
2023/05/23 11:19:21;;;;;;;7.10;6.53;;;;;;;34.30;59.37;100710.13;5110177;27;66402;-41
2023/05/23 11:21:59;;;;;;;7.15;6.68;;;;;;;34.37;58.86;100711.63;5102979;27;69719;-41
2023/05/23 11:24:51;;;;;;;7.50;7.00;;;;;;;34.25;59.77;100703.56;5104603;27;66310;-43
2023/05/23 11:27:37;;;;;;;8.27;7.55;;;;;;;33.68;59.31;100607.59;5112188;27;70144;-43
2023/05/23 11:30:13;;;;;;;8.20;7.47;;;;;;;33.50;59.19;100578.72;5105232;27;66299;-41
2023/05/23 11:32:54;;;;;;;7.78;7.18;;;;;;;34.19;59.50;100710.00;5105986;27;69905;-42
2023/05/23 11:35:26;;;;;;;7.72;7.18;;;;;;;34.28;59.68;100720.47;5104435;27;66152;-41
2023/05/23 11:37:58;;;;;;;8.10;7.50;;;;;;;34.25;59.39;100717.16;5102617;27;70381;-41
2023/05/23 11:40:34;;;;;;;8.32;7.53;;;;;;;33.54;60.04;100597.03;5100440;27;66428;-42
2023/05/23 11:43:08;;;;;;;7.55;6.95;;;;;;;34.16;59.81;100690.63;5104195;27;69689;-41
2023/05/23 11:45:40;;;;;;;7.80;7.30;;;;;;;34.10;59.56;100650.75;5100294;27;66527;-41
2023/05/23 11:48:13;;;;;;;7.38;6.88;;;;;;;34.06;60.12;100658.59;5100608;27;70012;-40
2023/05/23 11:50:53;;;;;;;8.48;7.68;;;;;;;34.13;59.92;100691.09;5104075;27;66831;-42
2023/05/23 11:53:27;;;;;;;8.95;6.88;;;;;;;34.01;60.28;100691.13;5101367;27;70132;-41
2023/05/23 11:56:01;;;;;;;7.15;6.65;;;;;;;34.01;60.11;100682.97;5104338;27;64307;-41
2023/05/23 11:58:37;;;;;;;7.90;7.30;;;;;;;33.50;60.59;100605.91;5103431;27;70279;-43
2023/05/23 12:01:09;;;;;;;7.32;6.60;;;;;;;34.09;60.06;100696.22;5104704;27;66513;-42
2023/05/23 12:03:49;;;;;;;6.95;6.40;;;;;;;33.27;60.27;100575.03;5103670;27;69756;-41
2023/05/23 12:06:23;;;;;;;7.90;7.25;;;;;;;34.04;60.23;100698.81;5103367;27;65695;-41
2023/05/23 12:08:55;;;;;;;8.63;7.20;;;;;;;33.87;60.53;100673.47;5106377;27;70240;-42
2023/05/23 12:11:26;;;;;;;7.68;6.90;;;;;;;33.99;60.36;100706.88;5094671;27;65948;-43
2023/05/23 12:14:00;;;;;;;7.63;7.13;;;;;;;33.97;60.58;100722.66;5087605;27;68703;-44
2023/05/23 12:16:32;;;;;;;7.07;6.47;;;;;;;33.92;60.37;100731.53;5104706;27;65514;-42
2023/05/23 12:19:05;;;;;;;7.03;6.47;;;;;;;33.89;60.50;100748.34;5103905;27;70576;-41